sensor_id;sensor_type;location;lat;lon;timestamp;pressure;altitude;pressure_sealevel;temperature;humidity
61769;BME280;47669;48.712;9.016;2023-02-10T00:00:50;98326.59;;;-6.66;nan
61769;BME280;47669;48.712;9.016;2023-02-10T00:03:15;98324.34;;;-6.53;nan
61769;BME280;47669;48.712;9.016;2023-02-10T00:05:41;98316.03;;;-6.98;nan
61769;BME280;47669;48.712;9.016;2023-02-10T00:08:06;98318.81;;;-7.02;nan
61769;BME280;47669;48.712;9.016;2023-02-10T00:10:31;98318.03;;;-6.65;nan
61769;BME280;47669;48.712;9.016;2023-02-10T00:12:56;98318.13;;;-6.87;nan
61769;BME280;47669;48.712;9.016;2023-02-10T00:15:22;98326.28;;;-6.98;nan
61769;BME280;47669;48.712;9.016;2023-02-10T00:17:47;98319.34;;;-6.75;nan
61769;BME280;47669;48.712;9.016;2023-02-10T00:20:12;98310.38;;;-6.85;nan
61769;BME280;47669;48.712;9.016;2023-02-10T00:22:38;98314.56;;;-7.03;nan
61769;BME280;47669;48.712;9.016;2023-02-10T00:25:03;98314.25;;;-7.16;nan
61769;BME280;47669;48.712;9.016;2023-02-10T00:27:28;98311.63;;;-7.15;nan
61769;BME280;47669;48.712;9.016;2023-02-10T00:29:54;98315.31;;;-6.81;nan
61769;BME280;47669;48.712;9.016;2023-02-10T00:32:19;98303.56;;;-7.26;nan
61769;BME280;47669;48.712;9.016;2023-02-10T00:34:45;98310.81;;;-7.15;nan
61769;BME280;47669;48.712;9.016;2023-02-10T00:37:11;98314.56;;;-7.24;nan
61769;BME280;47669;48.712;9.016;2023-02-10T00:39:36;98312.66;;;-7.19;nan
61769;BME280;47669;48.712;9.016;2023-02-10T00:42:01;98322.34;;;-7.25;nan
61769;BME280;47669;48.712;9.016;2023-02-10T00:44:27;98324.28;;;-7.32;nan
61769;BME280;47669;48.712;9.016;2023-02-10T00:46:52;98326.16;;;-7.36;nan
61769;BME280;47669;48.712;9.016;2023-02-10T00:49:18;98327.69;;;-7.11;nan
61769;BME280;47669;48.712;9.016;2023-02-10T00:51:43;98319.34;;;-6.96;nan
61769;BME280;47669;48.712;9.016;2023-02-10T00:54:11;98330.56;;;-7.19;nan
61769;BME280;47669;48.712;9.016;2023-02-10T00:56:37;98323.84;;;-7.42;nan
61769;BME280;47669;48.712;9.016;2023-02-10T00:59:03;98331.56;;;-7.43;nan
61769;BME280;47669;48.712;9.016;2023-02-10T01:01:28;98335.91;;;-7.23;nan
61769;BME280;47669;48.712;9.016;2023-02-10T01:03:53;98333.38;;;-7.45;nan
61769;BME280;47669;48.712;9.016;2023-02-10T01:06:18;98341.31;;;-7.51;nan
61769;BME280;47669;48.712;9.016;2023-02-10T01:08:44;98340.50;;;-7.11;nan
61769;BME280;47669;48.712;9.016;2023-02-10T01:11:11;98338.00;;;-7.33;nan
61769;BME280;47669;48.712;9.016;2023-02-10T01:13:37;98345.16;;;-7.21;nan
61769;BME280;47669;48.712;9.016;2023-02-10T01:16:08;98349.44;;;-7.62;nan
61769;BME280;47669;48.712;9.016;2023-02-10T01:18:35;98342.50;;;-7.18;nan
61769;BME280;47669;48.712;9.016;2023-02-10T01:21:06;98340.13;;;-7.65;nan
61769;BME280;47669;48.712;9.016;2023-02-10T01:23:32;98350.66;;;-7.30;nan
61769;BME280;47669;48.712;9.016;2023-02-10T01:25:59;98350.06;;;-7.57;nan
61769;BME280;47669;48.712;9.016;2023-02-10T01:28:24;98355.63;;;-7.68;nan
61769;BME280;47669;48.712;9.016;2023-02-10T01:30:49;98346.16;;;-7.45;nan
61769;BME280;47669;48.712;9.016;2023-02-10T01:33:15;98347.41;;;-7.76;nan
61769;BME280;47669;48.712;9.016;2023-02-10T01:35:40;98349.38;;;-7.83;nan
61769;BME280;47669;48.712;9.016;2023-02-10T01:38:05;98355.47;;;-7.65;nan
61769;BME280;47669;48.712;9.016;2023-02-10T01:40:32;98356.44;;;-7.67;nan
61769;BME280;47669;48.712;9.016;2023-02-10T01:42:57;98345.59;;;-7.52;nan
61769;BME280;47669;48.712;9.016;2023-02-10T01:45:27;98346.13;;;-7.44;nan
61769;BME280;47669;48.712;9.016;2023-02-10T01:47:55;98345.78;;;-7.57;nan
61769;BME280;47669;48.712;9.016;2023-02-10T01:50:23;98342.28;;;-7.54;nan
61769;BME280;47669;48.712;9.016;2023-02-10T01:52:50;98345.69;;;-7.76;nan
61769;BME280;47669;48.712;9.016;2023-02-10T01:55:19;98347.78;;;-7.85;nan
61769;BME280;47669;48.712;9.016;2023-02-10T01:57:45;98355.69;;;-7.91;nan
61769;BME280;47669;48.712;9.016;2023-02-10T02:00:12;98349.97;;;-7.98;nan
61769;BME280;47669;48.712;9.016;2023-02-10T02:02:39;98357.38;;;-7.92;nan
61769;BME280;47669;48.712;9.016;2023-02-10T02:05:14;98355.16;;;-7.78;nan
61769;BME280;47669;48.712;9.016;2023-02-10T02:07:42;98367.13;;;-7.78;nan
61769;BME280;47669;48.712;9.016;2023-02-10T02:10:08;98356.16;;;-7.82;nan
61769;BME280;47669;48.712;9.016;2023-02-10T02:15:40;98361.09;;;-7.77;nan
61769;BME280;47669;48.712;9.016;2023-02-10T02:26:55;98380.81;;;-7.81;nan
61769;BME280;47669;48.712;9.016;2023-02-10T02:29:59;98377.19;;;-7.53;nan
61769;BME280;47669;48.712;9.016;2023-02-10T02:32:32;98374.44;;;-7.70;nan
61769;BME280;47669;48.712;9.016;2023-02-10T02:35:07;98379.66;;;-7.72;nan
61769;BME280;47669;48.712;9.016;2023-02-10T02:37:41;98376.72;;;-8.07;nan
61769;BME280;47669;48.712;9.016;2023-02-10T02:40:08;98373.75;;;-7.96;nan
61769;BME280;47669;48.712;9.016;2023-02-10T02:42:34;98373.88;;;-7.99;nan
61769;BME280;47669;48.712;9.016;2023-02-10T02:45:33;98377.69;;;-7.87;nan
61769;BME280;47669;48.712;9.016;2023-02-10T02:51:56;98383.78;;;-8.14;nan
61769;BME280;47669;48.712;9.016;2023-02-10T02:57:11;98397.00;;;-7.80;nan
61769;BME280;47669;48.712;9.016;2023-02-10T02:59:55;98393.19;;;-7.92;nan
61769;BME280;47669;48.712;9.016;2023-02-10T03:02:24;98402.06;;;-8.01;nan
61769;BME280;47669;48.712;9.016;2023-02-10T03:04:54;98400.47;;;-8.03;nan
61769;BME280;47669;48.712;9.016;2023-02-10T03:07:19;98384.50;;;-8.10;nan
61769;BME280;47669;48.712;9.016;2023-02-10T03:09:45;98388.66;;;-8.07;nan
61769;BME280;47669;48.712;9.016;2023-02-10T03:12:10;98390.72;;;-8.17;nan
61769;BME280;47669;48.712;9.016;2023-02-10T03:14:37;98394.25;;;-7.98;nan
61769;BME280;47669;48.712;9.016;2023-02-10T03:17:03;98398.25;;;-8.13;nan
61769;BME280;47669;48.712;9.016;2023-02-10T03:19:29;98402.13;;;-8.26;nan
61769;BME280;47669;48.712;9.016;2023-02-10T03:21:54;98395.53;;;-7.86;nan
61769;BME280;47669;48.712;9.016;2023-02-10T03:24:19;98390.38;;;-8.08;nan
61769;BME280;47669;48.712;9.016;2023-02-10T03:26:45;98394.84;;;-8.13;nan
61769;BME280;47669;48.712;9.016;2023-02-10T03:29:11;98390.94;;;-8.23;nan
61769;BME280;47669;48.712;9.016;2023-02-10T03:31:37;98394.50;;;-8.27;nan
61769;BME280;47669;48.712;9.016;2023-02-10T03:34:02;98395.00;;;-8.18;nan
61769;BME280;47669;48.712;9.016;2023-02-10T03:36:28;98391.41;;;-8.36;nan
61769;BME280;47669;48.712;9.016;2023-02-10T03:38:53;98392.97;;;-8.32;nan
61769;BME280;47669;48.712;9.016;2023-02-10T03:41:18;98393.16;;;-8.14;nan
61769;BME280;47669;48.712;9.016;2023-02-10T03:43:44;98391.53;;;-8.15;nan
61769;BME280;47669;48.712;9.016;2023-02-10T03:46:10;98393.34;;;-8.19;nan
61769;BME280;47669;48.712;9.016;2023-02-10T03:48:35;98399.28;;;-8.18;nan
61769;BME280;47669;48.712;9.016;2023-02-10T03:51:04;98406.06;;;-8.17;nan
61769;BME280;47669;48.712;9.016;2023-02-10T03:53:30;98417.13;;;-7.93;nan
61769;BME280;47669;48.712;9.016;2023-02-10T03:55:56;98411.88;;;-8.14;nan
61769;BME280;47669;48.712;9.016;2023-02-10T03:58:21;98417.53;;;-7.82;nan
61769;BME280;47669;48.712;9.016;2023-02-10T04:00:47;98413.31;;;-8.28;nan
61769;BME280;47669;48.712;9.016;2023-02-10T04:03:13;98413.69;;;-8.16;nan
61769;BME280;47669;48.712;9.016;2023-02-10T04:05:38;98410.31;;;-8.40;nan
61769;BME280;47669;48.712;9.016;2023-02-10T04:08:04;98420.34;;;-8.35;nan
61769;BME280;47669;48.712;9.016;2023-02-10T04:10:30;98414.59;;;-8.40;nan
61769;BME280;47669;48.712;9.016;2023-02-10T04:12:55;98412.09;;;-8.42;nan
61769;BME280;47669;48.712;9.016;2023-02-10T04:15:20;98408.91;;;-8.48;nan
61769;BME280;47669;48.712;9.016;2023-02-10T04:17:45;98408.00;;;-8.46;nan
61769;BME280;47669;48.712;9.016;2023-02-10T04:20:11;98413.72;;;-8.41;nan
61769;BME280;47669;48.712;9.016;2023-02-10T04:22:37;98410.03;;;-8.32;nan
61769;BME280;47669;48.712;9.016;2023-02-10T04:25:03;98404.28;;;-8.39;nan
61769;BME280;47669;48.712;9.016;2023-02-10T04:27:28;98407.91;;;-8.44;nan
61769;BME280;47669;48.712;9.016;2023-02-10T04:29:54;98405.56;;;-8.27;nan
61769;BME280;47669;48.712;9.016;2023-02-10T04:32:20;98408.81;;;-8.45;nan
61769;BME280;47669;48.712;9.016;2023-02-10T04:34:46;98417.59;;;-8.53;nan
61769;BME280;47669;48.712;9.016;2023-02-10T04:37:11;98409.06;;;-8.29;nan
61769;BME280;47669;48.712;9.016;2023-02-10T04:39:36;98408.09;;;-8.49;nan
61769;BME280;47669;48.712;9.016;2023-02-10T04:42:01;98416.03;;;-8.57;nan
61769;BME280;47669;48.712;9.016;2023-02-10T04:44:27;98421.69;;;-8.48;nan
61769;BME280;47669;48.712;9.016;2023-02-10T04:46:52;98418.56;;;-8.33;nan
61769;BME280;47669;48.712;9.016;2023-02-10T04:49:18;98415.63;;;-8.22;nan
61769;BME280;47669;48.712;9.016;2023-02-10T04:51:43;98419.41;;;-8.33;nan
61769;BME280;47669;48.712;9.016;2023-02-10T04:54:08;98418.81;;;-8.63;nan
61769;BME280;47669;48.712;9.016;2023-02-10T04:56:34;98421.06;;;-8.79;nan
61769;BME280;47669;48.712;9.016;2023-02-10T04:58:59;98424.97;;;-8.68;nan
61769;BME280;47669;48.712;9.016;2023-02-10T05:01:24;98417.94;;;-8.62;nan
61769;BME280;47669;48.712;9.016;2023-02-10T05:03:49;98422.56;;;-8.48;nan
61769;BME280;47669;48.712;9.016;2023-02-10T05:06:15;98432.69;;;-8.46;nan
61769;BME280;47669;48.712;9.016;2023-02-10T05:08:41;98425.38;;;-8.56;nan
61769;BME280;47669;48.712;9.016;2023-02-10T05:11:14;98436.09;;;-8.46;nan
61769;BME280;47669;48.712;9.016;2023-02-10T05:13:39;98435.09;;;-8.42;nan
61769;BME280;47669;48.712;9.016;2023-02-10T05:16:06;98435.00;;;-8.64;nan
61769;BME280;47669;48.712;9.016;2023-02-10T05:18:32;98438.38;;;-8.62;nan
61769;BME280;47669;48.712;9.016;2023-02-10T05:20:58;98438.75;;;-8.74;nan
61769;BME280;47669;48.712;9.016;2023-02-10T05:23:24;98447.78;;;-8.64;nan
61769;BME280;47669;48.712;9.016;2023-02-10T05:25:50;98443.31;;;-8.82;nan
61769;BME280;47669;48.712;9.016;2023-02-10T05:28:15;98440.13;;;-8.89;nan
61769;BME280;47669;48.712;9.016;2023-02-10T05:30:41;98441.28;;;-8.73;nan
61769;BME280;47669;48.712;9.016;2023-02-10T05:33:06;98440.31;;;-8.70;nan
61769;BME280;47669;48.712;9.016;2023-02-10T05:35:31;98439.06;;;-8.58;nan
61769;BME280;47669;48.712;9.016;2023-02-10T05:37:57;98444.81;;;-8.77;nan
61769;BME280;47669;48.712;9.016;2023-02-10T05:40:22;98436.13;;;-8.71;nan
61769;BME280;47669;48.712;9.016;2023-02-10T05:42:49;98446.34;;;-8.71;nan
61769;BME280;47669;48.712;9.016;2023-02-10T05:45:15;98447.03;;;-8.91;nan
61769;BME280;47669;48.712;9.016;2023-02-10T05:47:40;98450.50;;;-8.94;nan
61769;BME280;47669;48.712;9.016;2023-02-10T05:50:06;98451.53;;;-8.74;nan
61769;BME280;47669;48.712;9.016;2023-02-10T05:52:31;98450.63;;;-8.71;nan
61769;BME280;47669;48.712;9.016;2023-02-10T05:54:56;98453.78;;;-8.65;nan
61769;BME280;47669;48.712;9.016;2023-02-10T05:57:22;98453.06;;;-8.68;nan
61769;BME280;47669;48.712;9.016;2023-02-10T05:59:47;98457.63;;;-8.78;nan
61769;BME280;47669;48.712;9.016;2023-02-10T06:02:12;98461.63;;;-8.69;nan
61769;BME280;47669;48.712;9.016;2023-02-10T06:04:37;98458.59;;;-8.81;nan
61769;BME280;47669;48.712;9.016;2023-02-10T06:07:02;98470.66;;;-8.86;nan
61769;BME280;47669;48.712;9.016;2023-02-10T06:09:28;98466.63;;;-8.93;nan
61769;BME280;47669;48.712;9.016;2023-02-10T06:11:53;98469.59;;;-8.79;nan
61769;BME280;47669;48.712;9.016;2023-02-10T06:14:19;98472.25;;;-8.83;nan
61769;BME280;47669;48.712;9.016;2023-02-10T06:16:44;98479.50;;;-8.69;nan
61769;BME280;47669;48.712;9.016;2023-02-10T06:19:10;98481.97;;;-8.68;nan
61769;BME280;47669;48.712;9.016;2023-02-10T06:21:35;98486.03;;;-8.87;nan
61769;BME280;47669;48.712;9.016;2023-02-10T06:24:00;98487.31;;;-8.49;nan
61769;BME280;47669;48.712;9.016;2023-02-10T06:26:26;98488.84;;;-8.70;nan
61769;BME280;47669;48.712;9.016;2023-02-10T06:28:53;98493.19;;;-8.72;nan
61769;BME280;47669;48.712;9.016;2023-02-10T06:31:18;98484.84;;;-8.77;nan
61769;BME280;47669;48.712;9.016;2023-02-10T06:33:43;98487.97;;;-8.94;nan
61769;BME280;47669;48.712;9.016;2023-02-10T06:36:09;98492.78;;;-8.60;nan
61769;BME280;47669;48.712;9.016;2023-02-10T06:38:35;98490.50;;;-8.67;nan
61769;BME280;47669;48.712;9.016;2023-02-10T06:41:01;98498.19;;;-8.69;nan
61769;BME280;47669;48.712;9.016;2023-02-10T06:43:27;98498.00;;;-8.89;nan
61769;BME280;47669;48.712;9.016;2023-02-10T06:45:52;98492.00;;;-8.87;nan
61769;BME280;47669;48.712;9.016;2023-02-10T06:48:17;98499.53;;;-8.84;nan
61769;BME280;47669;48.712;9.016;2023-02-10T06:50:43;98497.25;;;-8.41;nan
61769;BME280;47669;48.712;9.016;2023-02-10T06:53:08;98510.03;;;-8.41;nan
61769;BME280;47669;48.712;9.016;2023-02-10T06:55:33;98500.59;;;-8.16;nan
61769;BME280;47669;48.712;9.016;2023-02-10T06:58:00;98506.75;;;-8.21;nan
61769;BME280;47669;48.712;9.016;2023-02-10T07:00:26;98521.16;;;-8.42;nan
61769;BME280;47669;48.712;9.016;2023-02-10T07:02:51;98517.69;;;-8.41;nan
61769;BME280;47669;48.712;9.016;2023-02-10T07:05:16;98522.28;;;-8.51;nan
61769;BME280;47669;48.712;9.016;2023-02-10T07:07:42;98529.22;;;-8.31;nan
61769;BME280;47669;48.712;9.016;2023-02-10T07:10:08;98525.09;;;-8.10;nan
61769;BME280;47669;48.712;9.016;2023-02-10T07:12:33;98529.06;;;-8.01;nan
61769;BME280;47669;48.712;9.016;2023-02-10T07:14:59;98529.03;;;-7.76;nan
61769;BME280;47669;48.712;9.016;2023-02-10T07:17:24;98521.69;;;-7.85;nan
61769;BME280;47669;48.712;9.016;2023-02-10T07:19:49;98521.78;;;-8.12;nan
61769;BME280;47669;48.712;9.016;2023-02-10T07:22:14;98516.22;;;-8.00;nan
61769;BME280;47669;48.712;9.016;2023-02-10T07:24:40;98519.66;;;-7.77;nan
61769;BME280;47669;48.712;9.016;2023-02-10T07:27:05;98519.66;;;-7.54;nan
61769;BME280;47669;48.712;9.016;2023-02-10T07:29:31;98516.47;;;-7.37;nan
61769;BME280;47669;48.712;9.016;2023-02-10T07:31:56;98518.78;;;-6.86;nan
61769;BME280;47669;48.712;9.016;2023-02-10T07:34:26;98527.69;;;-6.97;nan
61769;BME280;47669;48.712;9.016;2023-02-10T07:36:52;98520.25;;;-6.60;nan
61769;BME280;47669;48.712;9.016;2023-02-10T07:39:21;98516.59;;;-6.13;nan
61769;BME280;47669;48.712;9.016;2023-02-10T07:41:46;98516.09;;;-4.90;nan
61769;BME280;47669;48.712;9.016;2023-02-10T07:44:11;98508.94;;;-3.17;nan
61769;BME280;47669;48.712;9.016;2023-02-10T07:46:37;98512.09;;;-2.07;nan
61769;BME280;47669;48.712;9.016;2023-02-10T07:49:02;98517.31;;;-1.22;nan
61769;BME280;47669;48.712;9.016;2023-02-10T07:51:27;98514.13;;;-0.46;nan
61769;BME280;47669;48.712;9.016;2023-02-10T07:53:52;98524.34;;;-0.97;nan
61769;BME280;47669;48.712;9.016;2023-02-10T07:56:18;98516.34;;;-0.27;nan
61769;BME280;47669;48.712;9.016;2023-02-10T07:58:43;98510.66;;;0.19;nan
61769;BME280;47669;48.712;9.016;2023-02-10T08:01:09;98515.28;;;-0.24;nan
61769;BME280;47669;48.712;9.016;2023-02-10T08:03:36;98509.50;;;0.11;nan
61769;BME280;47669;48.712;9.016;2023-02-10T08:06:02;98511.38;;;0.22;nan
61769;BME280;47669;48.712;9.016;2023-02-10T08:08:27;98512.81;;;-0.26;nan
61769;BME280;47669;48.712;9.016;2023-02-10T08:10:53;98511.91;;;0.14;nan
61769;BME280;47669;48.712;9.016;2023-02-10T08:13:18;98511.81;;;0.52;nan
61769;BME280;47669;48.712;9.016;2023-02-10T08:15:43;98516.63;;;0.33;nan
61769;BME280;47669;48.712;9.016;2023-02-10T08:18:09;98519.25;;;0.20;nan
61769;BME280;47669;48.712;9.016;2023-02-10T08:20:35;98516.97;;;0.03;nan
61769;BME280;47669;48.712;9.016;2023-02-10T08:23:00;98511.16;;;-1.34;nan
61769;BME280;47669;48.712;9.016;2023-02-10T08:25:25;98522.22;;;-2.93;nan
61769;BME280;47669;48.712;9.016;2023-02-10T08:27:51;98537.53;;;-3.38;nan
61769;BME280;47669;48.712;9.016;2023-02-10T08:30:16;98530.34;;;-3.64;nan
61769;BME280;47669;48.712;9.016;2023-02-10T08:32:42;98535.09;;;-3.41;nan
61769;BME280;47669;48.712;9.016;2023-02-10T08:35:08;98531.38;;;-3.19;nan
61769;BME280;47669;48.712;9.016;2023-02-10T08:37:33;98541.19;;;-3.10;nan
61769;BME280;47669;48.712;9.016;2023-02-10T08:39:59;98533.78;;;-3.16;nan
61769;BME280;47669;48.712;9.016;2023-02-10T08:42:25;98536.53;;;-3.03;nan
61769;BME280;47669;48.712;9.016;2023-02-10T08:44:50;98527.91;;;-2.72;nan
61769;BME280;47669;48.712;9.016;2023-02-10T08:47:15;98531.13;;;-2.52;nan
61769;BME280;47669;48.712;9.016;2023-02-10T08:49:41;98537.41;;;-2.42;nan
61769;BME280;47669;48.712;9.016;2023-02-10T08:52:07;98535.81;;;-2.00;nan
61769;BME280;47669;48.712;9.016;2023-02-10T08:54:32;98531.75;;;-1.90;nan
61769;BME280;47669;48.712;9.016;2023-02-10T08:56:58;98523.28;;;-1.92;nan
61769;BME280;47669;48.712;9.016;2023-02-10T08:59:23;98534.34;;;-1.61;nan
61769;BME280;47669;48.712;9.016;2023-02-10T09:01:49;98531.75;;;-1.47;nan
61769;BME280;47669;48.712;9.016;2023-02-10T09:04:15;98532.34;;;-1.14;nan
61769;BME280;47669;48.712;9.016;2023-02-10T09:06:40;98526.91;;;-1.39;nan
61769;BME280;47669;48.712;9.016;2023-02-10T09:09:12;98533.31;;;-0.75;nan
61769;BME280;47669;48.712;9.016;2023-02-10T09:11:38;98531.63;;;-0.49;nan
61769;BME280;47669;48.712;9.016;2023-02-10T09:14:04;98534.75;;;-0.31;nan
61769;BME280;47669;48.712;9.016;2023-02-10T09:16:29;98536.72;;;-0.22;nan
61769;BME280;47669;48.712;9.016;2023-02-10T09:18:55;98528.13;;;-0.10;nan
61769;BME280;47669;48.712;9.016;2023-02-10T09:21:20;98528.34;;;0.13;nan
61769;BME280;47669;48.712;9.016;2023-02-10T09:23:45;98528.16;;;0.03;nan
61769;BME280;47669;48.712;9.016;2023-02-10T09:26:11;98531.03;;;0.11;nan
61769;BME280;47669;48.712;9.016;2023-02-10T09:28:37;98530.50;;;-0.32;nan
61769;BME280;47669;48.712;9.016;2023-02-10T09:31:07;98531.78;;;-0.25;nan
61769;BME280;47669;48.712;9.016;2023-02-10T09:33:32;98532.41;;;0.17;nan
61769;BME280;47669;48.712;9.016;2023-02-10T09:35:58;98533.41;;;0.27;nan
61769;BME280;47669;48.712;9.016;2023-02-10T09:38:24;98537.88;;;0.51;nan
61769;BME280;47669;48.712;9.016;2023-02-10T09:43:41;98543.34;;;0.96;nan
61769;BME280;47669;48.712;9.016;2023-02-10T09:46:16;98541.06;;;1.75;nan
61769;BME280;47669;48.712;9.016;2023-02-10T09:54:30;98533.09;;;2.12;nan
61769;BME280;47669;48.712;9.016;2023-02-10T09:57:05;98533.81;;;2.14;nan
61769;BME280;47669;48.712;9.016;2023-02-10T09:59:35;98541.28;;;2.75;nan
61769;BME280;47669;48.712;9.016;2023-02-10T10:02:13;98532.38;;;1.87;nan
61769;BME280;47669;48.712;9.016;2023-02-10T10:04:42;98534.56;;;2.16;nan
61769;BME280;47669;48.712;9.016;2023-02-10T10:07:26;98535.38;;;2.28;nan
61769;BME280;47669;48.712;9.016;2023-02-10T10:10:07;98530.38;;;2.92;nan
61769;BME280;47669;48.712;9.016;2023-02-10T10:12:36;98526.75;;;2.61;nan
61769;BME280;47669;48.712;9.016;2023-02-10T10:15:03;98528.97;;;2.77;nan
61769;BME280;47669;48.712;9.016;2023-02-10T10:20:35;98533.59;;;2.62;nan
61769;BME280;47669;48.712;9.016;2023-02-10T10:23:13;98523.78;;;3.21;nan
61769;BME280;47669;48.712;9.016;2023-02-10T10:25:56;98534.56;;;2.61;nan
61769;BME280;47669;48.712;9.016;2023-02-10T10:28:45;98525.75;;;2.96;nan
61769;BME280;47669;48.712;9.016;2023-02-10T10:31:19;98533.56;;;2.85;nan
61769;BME280;47669;48.712;9.016;2023-02-10T10:33:53;98529.75;;;3.00;nan
61769;BME280;47669;48.712;9.016;2023-02-10T10:36:22;98525.16;;;2.92;nan
61769;BME280;47669;48.712;9.016;2023-02-10T10:38:53;98526.47;;;2.87;nan
61769;BME280;47669;48.712;9.016;2023-02-10T10:41:23;98524.78;;;3.41;nan
61769;BME280;47669;48.712;9.016;2023-02-10T10:43:53;98526.84;;;3.58;nan
61769;BME280;47669;48.712;9.016;2023-02-10T10:46:25;98527.47;;;3.18;nan
61769;BME280;47669;48.712;9.016;2023-02-10T10:48:52;98528.59;;;2.82;nan
61769;BME280;47669;48.712;9.016;2023-02-10T10:51:18;98524.50;;;3.76;nan
61769;BME280;47669;48.712;9.016;2023-02-10T10:58:49;98518.41;;;4.18;nan
61769;BME280;47669;48.712;9.016;2023-02-10T11:01:16;98514.44;;;4.54;nan
61769;BME280;47669;48.712;9.016;2023-02-10T11:03:42;98511.38;;;4.39;nan
61769;BME280;47669;48.712;9.016;2023-02-10T11:06:11;98505.53;;;3.95;nan
61769;BME280;47669;48.712;9.016;2023-02-10T11:08:43;98506.25;;;3.55;nan
61769;BME280;47669;48.712;9.016;2023-02-10T11:11:11;98502.22;;;3.93;nan
61769;BME280;47669;48.712;9.016;2023-02-10T11:13:40;98510.50;;;4.60;nan
61769;BME280;47669;48.712;9.016;2023-02-10T11:16:09;98508.25;;;4.55;nan
61769;BME280;47669;48.712;9.016;2023-02-10T11:18:35;98503.19;;;4.53;nan
61769;BME280;47669;48.712;9.016;2023-02-10T11:21:05;98503.66;;;4.78;nan
61769;BME280;47669;48.712;9.016;2023-02-10T11:23:31;98497.44;;;6.16;nan
61769;BME280;47669;48.712;9.016;2023-02-10T11:25:58;98497.31;;;6.72;nan
61769;BME280;47669;48.712;9.016;2023-02-10T11:28:26;98497.59;;;6.79;nan
61769;BME280;47669;48.712;9.016;2023-02-10T11:31:00;98495.38;;;8.69;nan
61769;BME280;47669;48.712;9.016;2023-02-10T11:33:30;98510.31;;;8.08;nan
61769;BME280;47669;48.712;9.016;2023-02-10T11:36:03;98502.91;;;7.77;nan
61769;BME280;47669;48.712;9.016;2023-02-10T11:38:30;98499.31;;;9.40;nan
61769;BME280;47669;48.712;9.016;2023-02-10T11:40:58;98499.81;;;8.08;nan
61769;BME280;47669;48.712;9.016;2023-02-10T11:43:40;98500.72;;;8.94;nan
61769;BME280;47669;48.712;9.016;2023-02-10T11:46:07;98496.28;;;8.52;nan
61769;BME280;47669;48.712;9.016;2023-02-10T11:48:34;98493.31;;;8.20;nan
61769;BME280;47669;48.712;9.016;2023-02-10T11:51:05;98491.75;;;9.62;nan
61769;BME280;47669;48.712;9.016;2023-02-10T11:53:33;98491.50;;;10.21;nan
61769;BME280;47669;48.712;9.016;2023-02-10T11:59:34;98484.19;;;9.42;nan
61769;BME280;47669;48.712;9.016;2023-02-10T12:02:15;98491.69;;;8.96;nan
61769;BME280;47669;48.712;9.016;2023-02-10T12:05:16;98489.28;;;9.77;nan
61769;BME280;47669;48.712;9.016;2023-02-10T12:08:02;98485.31;;;9.15;nan
61769;BME280;47669;48.712;9.016;2023-02-10T12:10:46;98476.63;;;9.39;nan
61769;BME280;47669;48.712;9.016;2023-02-10T12:13:18;98481.88;;;9.23;nan
61769;BME280;47669;48.712;9.016;2023-02-10T12:16:00;98466.84;;;10.05;nan
61769;BME280;47669;48.712;9.016;2023-02-10T12:18:45;98474.84;;;9.48;nan
61769;BME280;47669;48.712;9.016;2023-02-10T12:23:54;98470.38;;;7.88;nan
61769;BME280;47669;48.712;9.016;2023-02-10T12:26:28;98474.13;;;8.46;nan
61769;BME280;47669;48.712;9.016;2023-02-10T12:34:50;98465.91;;;9.82;nan
61769;BME280;47669;48.712;9.016;2023-02-10T12:37:37;98453.31;;;9.36;nan
61769;BME280;47669;48.712;9.016;2023-02-10T12:40:13;98447.03;;;9.86;nan
61769;BME280;47669;48.712;9.016;2023-02-10T12:48:57;98436.69;;;9.77;nan
61769;BME280;47669;48.712;9.016;2023-02-10T12:54:18;98437.03;;;9.41;nan
61769;BME280;47669;48.712;9.016;2023-02-10T12:56:52;98440.97;;;9.45;nan
61769;BME280;47669;48.712;9.016;2023-02-10T12:59:24;98435.13;;;10.07;nan
61769;BME280;47669;48.712;9.016;2023-02-10T13:01:58;98431.16;;;11.13;nan
61769;BME280;47669;48.712;9.016;2023-02-10T13:04:30;98426.81;;;11.20;nan
61769;BME280;47669;48.712;9.016;2023-02-10T13:07:02;98422.44;;;11.51;nan
61769;BME280;47669;48.712;9.016;2023-02-10T13:09:43;98423.19;;;11.59;nan
61769;BME280;47669;48.712;9.016;2023-02-10T13:12:18;98428.88;;;10.56;nan
61769;BME280;47669;48.712;9.016;2023-02-10T13:14:46;98421.00;;;11.63;nan
61769;BME280;47669;48.712;9.016;2023-02-10T13:17:13;98417.00;;;11.52;nan
61769;BME280;47669;48.712;9.016;2023-02-10T13:22:42;98422.75;;;13.39;nan
61769;BME280;47669;48.712;9.016;2023-02-10T13:25:18;98425.22;;;11.72;nan
61769;BME280;47669;48.712;9.016;2023-02-10T13:28:05;98423.91;;;12.06;nan
61769;BME280;47669;48.712;9.016;2023-02-10T13:33:20;98421.25;;;10.92;nan
61769;BME280;47669;48.712;9.016;2023-02-10T13:35:49;98422.78;;;11.86;nan
61769;BME280;47669;48.712;9.016;2023-02-10T13:38:18;98425.66;;;11.61;nan
61769;BME280;47669;48.712;9.016;2023-02-10T13:40:48;98433.97;;;11.12;nan
61769;BME280;47669;48.712;9.016;2023-02-10T13:43:24;98427.00;;;10.25;nan
61769;BME280;47669;48.712;9.016;2023-02-10T13:45:53;98426.91;;;11.50;nan
61769;BME280;47669;48.712;9.016;2023-02-10T13:48:28;98426.69;;;11.14;nan
61769;BME280;47669;48.712;9.016;2023-02-10T13:51:05;98435.16;;;12.59;nan
61769;BME280;47669;48.712;9.016;2023-02-10T14:04:25;98442.03;;;12.75;nan
61769;BME280;47669;48.712;9.016;2023-02-10T14:06:53;98430.13;;;10.91;nan
61769;BME280;47669;48.712;9.016;2023-02-10T14:09:31;98433.59;;;11.15;nan
61769;BME280;47669;48.712;9.016;2023-02-10T14:12:01;98428.63;;;10.34;nan
61769;BME280;47669;48.712;9.016;2023-02-10T14:14:39;98435.19;;;11.01;nan
61769;BME280;47669;48.712;9.016;2023-02-10T14:17:19;98433.69;;;11.68;nan
61769;BME280;47669;48.712;9.016;2023-02-10T14:19:47;98428.69;;;10.10;nan
61769;BME280;47669;48.712;9.016;2023-02-10T14:24:51;98428.00;;;9.11;nan
61769;BME280;47669;48.712;9.016;2023-02-10T14:27:20;98431.38;;;9.93;nan
61769;BME280;47669;48.712;9.016;2023-02-10T14:29:52;98430.84;;;10.06;nan
61769;BME280;47669;48.712;9.016;2023-02-10T14:32:18;98430.81;;;10.62;nan
61769;BME280;47669;48.712;9.016;2023-02-10T14:34:58;98435.84;;;12.32;nan
61769;BME280;47669;48.712;9.016;2023-02-10T14:37:25;98432.63;;;10.61;nan
61769;BME280;47669;48.712;9.016;2023-02-10T14:39:53;98434.31;;;8.75;nan
61769;BME280;47669;48.712;9.016;2023-02-10T14:42:20;98426.50;;;8.83;nan
61769;BME280;47669;48.712;9.016;2023-02-10T14:44:51;98426.56;;;8.49;nan